Time;durP1;ratioP1;P1;durP2;ratioP2;P2;SDS_P1;SDS_P2;PMS_P1;PMS_P2;Temp;Humidity;BMP_temperature;BMP_pressure;BME280_temperature;BME280_humidity;BME280_pressure;Samples;Min_cycle;Max_cycle;Signal;HPM_P1;HPM_P2
2021/09/14 00:02:23;;;;;;;5.35;4.85;;;;;;;15.87;76.41;99475.51;1837137;75;20969;-54
2021/09/14 00:04:51;;;;;;;6.60;6.00;;;;;;;15.87;76.43;99473.28;1834073;75;20878;-54
2021/09/14 00:07:19;;;;;;;7.20;6.47;;;;;;;15.85;76.35;99480.66;1835537;75;20953;-53
2021/09/14 00:09:46;;;;;;;6.10;5.60;;;;;;;15.82;76.23;99480.39;1832612;75;20941;-55
2021/09/14 00:12:12;;;;;;;7.58;6.83;;;;;;;15.78;76.19;99476.19;1830949;75;21416;-55
2021/09/14 00:14:39;;;;;;;7.53;5.35;;;;;;;15.73;76.33;99470.25;1829819;75;22659;-56
2021/09/14 00:17:05;;;;;;;7.75;5.47;;;;;;;15.70;76.31;99481.31;1830660;75;20898;-56
2021/09/14 00:19:33;;;;;;;8.73;5.95;;;;;;;15.67;76.17;99474.75;1830500;75;20882;-56
2021/09/14 00:22:01;;;;;;;6.33;5.40;;;;;;;15.65;76.16;99479.41;1831510;75;20914;-55
2021/09/14 00:24:28;;;;;;;10.80;4.72;;;;;;;15.62;76.16;99476.95;1831028;75;20957;-56
2021/09/14 00:26:54;;;;;;;4.75;3.58;;;;;;;15.59;76.14;99482.58;1829913;75;20874;-56
2021/09/14 00:29:20;;;;;;;5.53;4.22;;;;;;;15.59;76.17;99483.06;1829506;75;20933;-54
2021/09/14 00:31:47;;;;;;;6.03;5.45;;;;;;;15.59;76.09;99477.64;1829244;75;21127;-56
2021/09/14 00:34:15;;;;;;;6.33;5.78;;;;;;;15.56;76.00;99473.33;1823809;75;21099;-56
2021/09/14 00:36:41;;;;;;;7.30;6.70;;;;;;;15.56;75.96;99477.89;1831266;75;21068;-54
2021/09/14 00:39:08;;;;;;;7.15;5.65;;;;;;;15.53;75.84;99474.87;1827851;75;21384;-55
2021/09/14 00:41:36;;;;;;;7.12;6.47;;;;;;;15.49;75.72;99471.50;1827260;75;21551;-56
2021/09/14 00:44:03;;;;;;;6.53;5.40;;;;;;;15.46;75.75;99474.45;1825961;76;23053;-54
2021/09/14 00:46:30;;;;;;;5.05;4.65;;;;;;;15.43;75.74;99473.80;1827285;75;21624;-56
2021/09/14 00:48:57;;;;;;;4.62;4.20;;;;;;;15.39;75.80;99481.30;1826820;75;21538;-56
2021/09/14 00:51:24;;;;;;;6.42;5.12;;;;;;;15.36;75.79;99472.02;1828319;75;21056;-55
2021/09/14 00:53:51;;;;;;;4.50;3.83;;;;;;;15.33;75.79;99464.58;1830190;75;20971;-54
2021/09/14 00:56:18;;;;;;;5.22;4.62;;;;;;;15.33;75.76;99468.66;1826440;75;21123;-55
2021/09/14 00:58:45;;;;;;;5.20;4.42;;;;;;;15.31;75.82;99467.41;1830358;75;21052;-56
2021/09/14 01:01:12;;;;;;;6.50;5.83;;;;;;;15.30;75.81;99466.18;1825278;75;21724;-53
2021/09/14 01:03:38;;;;;;;7.20;5.50;;;;;;;15.27;75.81;99475.39;1827168;75;21038;-53
2021/09/14 01:06:05;;;;;;;6.20;5.70;;;;;;;15.24;75.89;99476.95;1825969;75;21044;-54
2021/09/14 01:08:33;;;;;;;5.30;4.90;;;;;;;15.22;76.00;99484.36;1824851;76;21088;-55
2021/09/14 01:11:02;;;;;;;7.17;4.45;;;;;;;15.19;76.09;99480.50;1825332;75;21016;-56
2021/09/14 01:13:29;;;;;;;4.62;4.42;;;;;;;15.18;76.13;99486.89;1778539;78;22311;-56
2021/09/14 01:16:10;;;;;;;4.37;3.98;;;;;;;15.18;76.10;99483.31;1793125;77;21659;-56
2021/09/14 01:18:36;;;;;;;4.80;4.40;;;;;;;15.17;76.06;99488.36;1760436;78;20995;-56
2021/09/14 01:21:03;;;;;;;4.37;4.03;;;;;;;15.15;75.99;99489.81;1759696;79;21101;-56
2021/09/14 01:23:29;;;;;;;6.55;4.37;;;;;;;15.15;75.94;99489.81;1756725;78;21136;-55
2021/09/14 01:25:57;;;;;;;5.97;5.45;;;;;;;15.14;75.84;99491.66;1787376;77;21098;-56
2021/09/14 01:28:24;;;;;;;5.30;4.92;;;;;;;15.12;75.70;99489.56;1793610;77;21063;-54
2021/09/14 01:30:50;;;;;;;4.67;4.28;;;;;;;15.09;75.75;99494.33;1768005;79;21086;-54
2021/09/14 01:33:17;;;;;;;5.22;4.83;;;;;;;15.04;75.75;99490.59;1764428;79;21142;-56
2021/09/14 01:35:43;;;;;;;6.92;5.15;;;;;;;15.01;75.72;99496.22;1770051;78;21147;-54
2021/09/14 01:38:12;;;;;;;4.58;4.17;;;;;;;14.97;75.70;99492.50;1762051;78;21962;-56
2021/09/14 01:40:38;;;;;;;4.47;3.90;;;;;;;14.94;75.99;99491.34;1761618;78;21520;-54
2021/09/14 01:43:07;;;;;;;4.28;3.90;;;;;;;14.91;75.86;99493.77;1759445;78;21102;-56
2021/09/14 01:45:34;;;;;;;3.50;2.83;;;;;;;14.90;75.88;99492.52;1755416;78;21191;-55
2021/09/14 01:48:03;;;;;;;4.87;4.58;;;;;;;14.88;75.79;99495.36;1760500;78;21559;-56
2021/09/14 01:50:29;;;;;;;4.15;3.90;;;;;;;14.85;75.67;99488.79;1760700;78;21078;-55
2021/09/14 01:53:00;;;;;;;5.65;5.15;;;;;;;14.84;75.68;99492.47;1770337;79;21070;-54
2021/09/14 01:55:30;;;;;;;6.35;5.85;;;;;;;14.81;75.58;99491.31;1757472;78;21587;-54
2021/09/14 01:57:57;;;;;;;4.12;3.85;;;;;;;14.78;75.48;99488.84;1770881;79;23237;-55
2021/09/14 02:00:30;;;;;;;4.17;3.85;;;;;;;14.75;75.38;99498.05;1769995;79;21053;-56
2021/09/14 02:58:38;;;;;;;3.60;3.30;;;;;;;14.13;75.96;99530.69;1775734;78;24795;-55
2021/09/14 02:59:26;;;;;;;4.00;3.67;;;;;;;14.12;76.20;99530.30;1770172;78;20964;-54
2021/09/14 03:01:54;;;;;;;4.28;3.87;;;;;;;14.13;76.24;99533.40;1775330;77;20925;-54
2021/09/14 03:04:21;;;;;;;4.03;3.72;;;;;;;14.13;76.21;99535.23;1765113;77;21048;-54
2021/09/14 03:06:48;;;;;;;4.20;3.70;;;;;;;14.13;76.29;99527.11;1786011;77;20847;-54
2021/09/14 03:09:18;;;;;;;4.72;4.28;;;;;;;14.12;76.28;99534.36;1768309;78;20982;-55
2021/09/14 03:11:46;;;;;;;5.20;4.65;;;;;;;14.11;76.01;99536.72;1769345;78;20962;-55
2021/09/14 03:14:14;;;;;;;7.33;3.45;;;;;;;14.10;76.08;99542.22;1756298;78;21655;-53
2021/09/14 03:16:42;;;;;;;4.50;3.05;;;;;;;14.09;76.07;99545.41;1751451;79;21481;-55
2021/09/14 03:19:10;;;;;;;3.33;3.05;;;;;;;14.07;76.10;99544.64;1753903;79;21300;-56
2021/09/14 03:21:38;;;;;;;3.58;3.27;;;;;;;14.05;75.98;99542.99;1746929;78;21843;-55
2021/09/14 03:24:07;;;;;;;3.08;2.80;;;;;;;14.03;76.20;99545.31;1750682;78;21049;-54
2021/09/14 03:26:34;;;;;;;3.55;3.35;;;;;;;14.04;76.28;99552.95;1751243;78;21009;-55
2021/09/14 03:29:01;;;;;;;4.58;4.17;;;;;;;14.07;76.21;99546.47;1768136;78;22057;-53
2021/09/14 03:31:29;;;;;;;4.60;4.20;;;;;;;14.03;76.29;99546.31;1759294;78;21696;-53
2021/09/14 03:33:57;;;;;;;4.70;4.47;;;;;;;14.04;76.16;99551.59;1757895;78;21000;-54
2021/09/14 03:36:23;;;;;;;6.08;5.50;;;;;;;14.02;76.10;99549.50;1733737;78;21091;-55
2021/09/14 03:38:50;;;;;;;4.03;3.62;;;;;;;14.01;76.01;99556.75;1761994;78;21108;-54
2021/09/14 03:41:16;;;;;;;4.12;3.37;;;;;;;14.00;75.93;99557.71;1761621;78;21167;-55
2021/09/14 03:43:43;;;;;;;4.30;3.77;;;;;;;13.99;75.88;99555.97;1757385;78;21462;-54
2021/09/14 03:46:09;;;;;;;4.58;4.17;;;;;;;13.98;75.72;99565.05;1761547;78;21001;-55
2021/09/14 03:48:35;;;;;;;4.72;3.98;;;;;;;13.97;75.58;99565.15;1755820;78;21115;-55
2021/09/14 03:51:02;;;;;;;4.33;4.03;;;;;;;13.96;75.59;99567.47;1758122;78;21131;-55
2021/09/14 03:53:28;;;;;;;6.10;5.60;;;;;;;13.94;75.66;99560.83;1762670;78;21086;-54
2021/09/14 03:55:55;;;;;;;5.85;5.20;;;;;;;13.94;75.70;99566.23;1759509;78;21159;-55
2021/09/14 03:58:22;;;;;;;5.22;4.83;;;;;;;13.96;75.77;99575.58;1761472;78;21135;-55
2021/09/14 04:00:53;;;;;;;7.33;6.75;;;;;;;13.96;76.21;99572.39;1758401;78;21453;-53
2021/09/14 04:11:21;;;;;;;8.28;4.22;;;;;;;13.97;76.47;99581.38;1742723;78;21377;-53
2021/09/14 04:15:55;;;;;;;6.00;5.40;;;;;;;14.05;76.66;99584.94;1788434;78;22647;-54
2021/09/14 04:18:22;;;;;;;13.15;5.62;;;;;;;14.03;76.73;99586.42;1767386;79;21061;-56
2021/09/14 04:20:49;;;;;;;7.20;6.60;;;;;;;14.03;76.82;99582.84;1737128;80;21135;-56
2021/09/14 04:23:15;;;;;;;6.80;6.17;;;;;;;14.08;76.99;99588.33;1770336;79;21030;-54
2021/09/14 04:25:42;;;;;;;7.70;5.42;;;;;;;14.13;77.25;99590.72;1763902;79;21313;-55
2021/09/14 04:28:09;;;;;;;5.87;5.33;;;;;;;14.16;77.62;99591.89;1769497;79;21150;-56
2021/09/14 04:30:36;;;;;;;6.75;5.65;;;;;;;14.24;77.93;99594.48;1766364;79;21017;-56
2021/09/14 04:33:02;;;;;;;5.20;4.62;;;;;;;14.31;78.17;99593.58;1769455;79;22554;-56
2021/09/14 04:35:29;;;;;;;5.72;4.78;;;;;;;14.37;78.43;99595.39;1732315;80;21077;-54
2021/09/14 04:37:57;;;;;;;7.00;6.00;;;;;;;14.45;78.57;99592.72;1707774;81;21494;-56
2021/09/14 04:40:24;;;;;;;6.25;5.72;;;;;;;14.52;78.66;99596.27;1734509;80;21601;-55
2021/09/14 04:42:50;;;;;;;7.25;6.72;;;;;;;14.58;78.75;99603.10;1712927;81;21085;-55
2021/09/14 04:45:18;;;;;;;5.10;4.70;;;;;;;14.63;78.74;99611.30;1710471;81;21134;-56
2021/09/14 04:47:45;;;;;;;10.93;5.50;;;;;;;14.68;78.70;99613.71;1706997;82;21093;-55
2021/09/14 04:50:12;;;;;;;5.12;4.75;;;;;;;14.72;78.61;99617.94;1707633;81;21095;-54
2021/09/14 04:52:38;;;;;;;5.25;4.95;;;;;;;14.75;78.58;99621.80;1710332;81;21104;-55
2021/09/14 04:55:06;;;;;;;11.12;6.05;;;;;;;14.76;78.55;99620.35;1713410;81;21391;-56
2021/09/14 04:57:33;;;;;;;5.92;5.17;;;;;;;14.80;78.54;99621.52;1718914;81;21244;-55
2021/09/14 04:59:59;;;;;;;5.75;5.10;;;;;;;14.81;78.54;99624.09;1715038;81;21363;-56
2021/09/14 05:02:25;;;;;;;6.28;5.65;;;;;;;14.85;78.50;99628.34;1715751;81;21265;-56
2021/09/14 05:04:52;;;;;;;5.83;5.47;;;;;;;14.86;78.46;99630.09;1710078;81;21400;-55
2021/09/14 05:07:18;;;;;;;5.65;4.83;;;;;;;14.89;78.41;99624.92;1710923;81;21767;-53
2021/09/14 05:09:45;;;;;;;7.03;5.25;;;;;;;14.94;78.44;99633.63;1735221;80;21164;-54
2021/09/14 05:12:11;;;;;;;7.00;5.40;;;;;;;15.00;78.48;99636.78;1701651;82;21062;-53
2021/09/14 05:14:40;;;;;;;6.10;5.50;;;;;;;15.08;78.49;99633.06;1709164;81;22609;-56
2021/09/14 05:17:09;;;;;;;4.78;4.30;;;;;;;15.18;78.45;99624.30;1676175;82;21051;-56
2021/09/14 05:19:48;;;;;;;5.00;4.40;;;;;;;15.29;78.45;99625.78;1660025;84;21429;-55
2021/09/14 05:22:19;;;;;;;4.92;4.20;;;;;;;15.38;78.30;99627.37;1702333;83;21147;-54
2021/09/14 05:24:45;;;;;;;5.72;5.15;;;;;;;15.46;78.19;99624.99;1710366;82;20994;-54
2021/09/14 05:27:11;;;;;;;9.83;5.30;;;;;;;15.55;78.05;99624.00;1735206;82;21109;-54
2021/09/14 05:29:38;;;;;;;6.22;5.42;;;;;;;15.63;77.86;99626.55;1703496;82;21073;-55
2021/09/14 05:32:05;;;;;;;4.92;4.50;;;;;;;15.71;77.65;99628.23;1707266;82;21134;-56
2021/09/14 05:34:34;;;;;;;4.30;3.77;;;;;;;15.80;77.38;99623.98;1734723;82;21459;-54
2021/09/14 05:37:01;;;;;;;5.83;4.20;;;;;;;15.88;77.20;99627.02;1705460;83;20918;-55
2021/09/14 05:39:27;;;;;;;4.05;3.47;;;;;;;15.97;76.90;99617.34;1687968;82;20936;-53
2021/09/14 05:41:55;;;;;;;4.87;4.40;;;;;;;16.02;76.71;99624.16;1711979;82;20918;-54
2021/09/14 05:44:22;;;;;;;3.15;2.95;;;;;;;16.07;76.62;99622.00;1712376;82;21045;-54
2021/09/14 05:46:48;;;;;;;5.58;3.98;;;;;;;16.16;76.43;99629.45;1714764;82;21060;-54
2021/09/14 05:49:15;;;;;;;4.95;4.55;;;;;;;16.26;76.21;99622.86;1711261;82;20948;-54
2021/09/14 05:51:41;;;;;;;4.75;4.25;;;;;;;16.36;75.82;99621.20;1691413;82;20911;-55
2021/09/14 05:54:08;;;;;;;4.30;3.60;;;;;;;16.44;75.49;99623.34;1712728;82;21397;-53
2021/09/14 05:56:36;;;;;;;4.22;3.90;;;;;;;16.51;75.17;99617.83;1704306;82;21664;-55
2021/09/14 05:59:07;;;;;;;3.33;3.10;;;;;;;16.55;74.80;99624.78;1717112;82;21065;-55
2021/09/14 06:01:34;;;;;;;3.30;3.00;;;;;;;16.60;74.58;99630.73;1707786;82;21288;-54
2021/09/14 06:04:01;;;;;;;3.90;3.25;;;;;;;16.64;74.48;99625.00;1714906;82;20895;-53
2021/09/14 06:06:28;;;;;;;4.97;3.17;;;;;;;16.73;74.25;99619.36;1734853;82;20995;-53
2021/09/14 06:08:57;;;;;;;3.67;2.50;;;;;;;16.82;74.06;99617.80;1737660;82;20974;-54
2021/09/14 06:11:25;;;;;;;4.60;4.03;;;;;;;16.90;73.92;99618.08;1714000;82;20972;-56
2021/09/14 06:13:53;;;;;;;3.40;2.98;;;;;;;16.95;73.64;99620.81;1704026;83;20981;-54
2021/09/14 06:16:19;;;;;;;4.08;3.72;;;;;;;17.05;73.30;99616.03;1697810;82;21090;-56
2021/09/14 06:18:47;;;;;;;9.58;3.55;;;;;;;17.10;73.01;99621.48;1758357;80;21565;-55
2021/09/14 06:21:16;;;;;;;3.25;3.05;;;;;;;17.15;72.56;99615.70;1754914;80;22679;-55
2021/09/14 06:23:45;;;;;;;6.62;2.27;;;;;;;17.22;72.45;99614.23;1732347;80;21085;-55
2021/09/14 06:26:12;;;;;;;6.00;2.62;;;;;;;17.28;71.98;99613.25;1755670;80;21583;-54
2021/09/14 06:28:39;;;;;;;3.95;3.12;;;;;;;17.36;71.93;99616.24;1754698;80;21126;-53
2021/09/14 06:31:07;;;;;;;2.87;2.40;;;;;;;17.43;71.58;99619.37;1755254;80;21005;-56
2021/09/14 06:33:33;;;;;;;7.03;3.00;;;;;;;17.48;71.49;99617.64;1757200;80;21567;-56
2021/09/14 06:36:00;;;;;;;3.80;3.50;;;;;;;17.52;71.25;99610.48;1753115;79;23311;-54
2021/09/14 06:38:28;;;;;;;8.70;4.47;;;;;;;17.57;71.36;99619.14;1753919;80;21026;-54
2021/09/14 06:40:55;;;;;;;6.30;3.25;;;;;;;17.65;71.19;99622.65;1722793;82;20959;-53
2021/09/14 06:43:24;;;;;;;7.00;3.27;;;;;;;17.71;70.87;99616.71;1755346;80;21108;-53
2021/09/14 06:46:04;;;;;;;2.10;1.98;;;;;;;17.80;70.70;99621.91;1675620;80;21089;-54
2021/09/14 06:48:33;;;;;;;2.55;2.17;;;;;;;17.89;70.24;99620.69;1753949;80;21585;-55
2021/09/14 06:50:59;;;;;;;8.53;2.62;;;;;;;17.95;69.86;99626.16;1754372;80;22133;-56
2021/09/14 06:53:29;;;;;;;2.55;2.30;;;;;;;18.04;69.45;99626.75;1753842;80;21677;-55
2021/09/14 06:55:57;;;;;;;2.98;2.77;;;;;;;18.12;69.27;99628.35;1756853;80;21320;-56
2021/09/14 06:58:26;;;;;;;2.50;2.30;;;;;;;18.20;69.06;99623.67;1755149;80;21148;-56
2021/09/14 07:00:53;;;;;;;6.12;2.67;;;;;;;18.27;69.10;99625.77;1759324;79;21220;-55
2021/09/14 07:03:21;;;;;;;2.02;1.90;;;;;;;18.36;68.81;99631.83;1761889;79;21442;-53
2021/09/14 07:05:47;;;;;;;5.37;2.50;;;;;;;18.44;68.33;99628.47;1758586;79;21714;-53
2021/09/14 07:08:14;;;;;;;2.50;2.05;;;;;;;18.49;68.03;99633.03;1758597;80;21122;-56
2021/09/14 07:10:41;;;;;;;2.90;1.77;;;;;;;18.53;67.56;99634.52;1759870;80;21073;-53
2021/09/14 07:13:09;;;;;;;2.27;1.30;;;;;;;18.58;67.59;99632.80;1753236;79;21069;-53
2021/09/14 07:15:37;;;;;;;3.77;1.30;;;;;;;18.66;67.15;99632.53;1758529;79;21574;-54
2021/09/14 07:18:03;;;;;;;3.95;1.57;;;;;;;18.74;66.24;99634.61;1764194;79;21418;-54
2021/09/14 07:20:30;;;;;;;4.20;1.95;;;;;;;18.81;66.08;99633.96;1753645;79;21666;-53
2021/09/14 07:22:58;;;;;;;2.62;1.30;;;;;;;18.89;66.02;99638.27;1757687;79;21086;-54
2021/09/14 07:25:24;;;;;;;4.40;2.05;;;;;;;18.98;65.83;99637.13;1757034;80;21588;-55
2021/09/14 07:27:51;;;;;;;3.80;1.60;;;;;;;19.03;65.20;99636.26;1755720;79;21057;-56
2021/09/14 07:30:17;;;;;;;2.85;1.30;;;;;;;19.08;65.27;99640.81;1757440;80;21047;-53
2021/09/14 07:32:43;;;;;;;3.25;1.27;;;;;;;19.13;64.44;99643.53;1752568;79;21124;-55
2021/09/14 07:35:10;;;;;;;4.70;1.55;;;;;;;19.17;63.95;99636.80;1756709;80;21085;-56
2021/09/14 07:37:38;;;;;;;8.63;1.37;;;;;;;19.23;63.96;99642.23;1754047;79;21144;-54
2021/09/14 07:40:05;;;;;;;2.70;1.25;;;;;;;19.26;63.49;99641.97;1751713;80;21161;-54
2021/09/14 07:42:32;;;;;;;3.92;1.37;;;;;;;19.28;63.56;99638.62;1761078;79;20900;-54
2021/09/14 07:44:59;;;;;;;4.25;1.30;;;;;;;19.32;63.12;99634.61;1758490;80;21086;-54
2021/09/14 07:47:25;;;;;;;5.95;0.98;;;;;;;19.39;63.11;99635.84;1756061;80;21101;-56
2021/09/14 07:49:52;;;;;;;2.45;0.95;;;;;;;19.45;62.91;99631.21;1755231;80;21728;-54
2021/09/14 07:52:19;;;;;;;3.12;1.42;;;;;;;19.53;62.54;99634.17;1755745;80;21485;-55
2021/09/14 07:54:45;;;;;;;6.55;1.15;;;;;;;19.60;62.49;99632.63;1754252;80;21466;-54
2021/09/14 07:57:13;;;;;;;3.20;1.15;;;;;;;19.67;62.33;99630.72;1755703;80;21445;-56
2021/09/14 07:59:40;;;;;;;1.55;1.10;;;;;;;19.73;62.08;99624.25;1759100;79;21564;-55
2021/09/14 08:02:07;;;;;;;1.50;0.90;;;;;;;19.79;61.67;99623.70;1761797;79;21682;-54
2021/09/14 08:04:34;;;;;;;3.30;1.30;;;;;;;19.83;61.71;99624.27;1764011;79;21061;-55
2021/09/14 08:07:02;;;;;;;1.32;1.00;;;;;;;19.87;61.12;99621.65;1758553;79;21082;-54
2021/09/14 08:09:30;;;;;;;1.92;1.00;;;;;;;19.89;61.21;99616.42;1757782;79;21071;-54
2021/09/14 08:11:57;;;;;;;5.90;0.90;;;;;;;19.96;61.97;99619.47;1754210;80;21062;-53
2021/09/14 08:14:23;;;;;;;2.60;1.00;;;;;;;20.02;61.66;99612.95;1756311;80;22564;-53
2021/09/14 08:16:50;;;;;;;3.42;0.80;;;;;;;20.08;60.89;99616.98;1747754;79;21708;-56
2021/09/14 08:19:16;;;;;;;1.00;0.90;;;;;;;20.12;60.11;99613.00;1750202;80;21043;-54
2021/09/14 08:21:43;;;;;;;8.08;1.02;;;;;;;20.15;60.09;99611.36;1749972;79;21674;-53
2021/09/14 08:24:11;;;;;;;3.83;1.10;;;;;;;20.22;60.13;99612.54;1747822;80;21289;-55
2021/09/14 08:26:38;;;;;;;1.80;0.90;;;;;;;20.29;60.08;99622.41;1747213;80;21970;-55
2021/09/14 08:29:04;;;;;;;1.15;0.80;;;;;;;20.37;59.62;99613.05;1746027;80;21429;-54
2021/09/14 08:31:33;;;;;;;1.40;0.90;;;;;;;20.44;59.17;99613.34;1747230;81;21354;-55
2021/09/14 08:33:59;;;;;;;1.30;0.90;;;;;;;20.51;58.95;99614.00;1753970;81;20982;-56
2021/09/14 08:36:26;;;;;;;1.82;1.00;;;;;;;20.60;58.85;99615.90;1705308;82;21027;-54
2021/09/14 08:38:52;;;;;;;1.07;0.78;;;;;;;20.69;58.77;99615.56;1756991;80;22534;-56
2021/09/14 08:41:19;;;;;;;1.27;0.75;;;;;;;20.77;58.22;99622.55;1753269;81;20911;-55
2021/09/14 08:43:47;;;;;;;0.75;0.65;;;;;;;20.83;56.79;99616.53;1754853;80;22084;-54
2021/09/14 08:46:15;;;;;;;2.90;0.80;;;;;;;20.87;56.37;99615.23;1757350;80;20966;-54
2021/09/14 08:48:42;;;;;;;1.00;0.60;;;;;;;20.90;56.29;99618.19;1755686;80;20915;-55
2021/09/14 08:51:09;;;;;;;1.52;0.80;;;;;;;20.95;56.36;99615.38;1751752;81;21050;-52
2021/09/14 08:53:36;;;;;;;1.00;0.60;;;;;;;21.02;56.13;99611.55;1753399;80;20975;-54
2021/09/14 08:56:04;;;;;;;1.15;0.60;;;;;;;21.04;54.49;99610.41;1753345;80;20899;-56
2021/09/14 08:58:31;;;;;;;1.15;0.50;;;;;;;21.05;53.39;99612.65;1755196;81;21512;-54
2021/09/14 09:00:58;;;;;;;0.90;0.57;;;;;;;21.01;53.54;99612.59;1756392;80;20956;-54
2021/09/14 09:03:28;;;;;;;1.05;0.53;;;;;;;21.01;53.38;99607.95;1727035;80;21179;-55
2021/09/14 09:05:54;;;;;;;0.50;0.50;;;;;;;21.03;52.63;99610.05;1754271;80;20942;-53
2021/09/14 09:08:29;;;;;;;1.77;0.60;;;;;;;21.04;52.57;99617.75;1757179;81;21053;-55
2021/09/14 09:11:08;;;;;;;0.90;0.50;;;;;;;21.08;52.40;99613.73;1752875;81;21066;-53
2021/09/14 09:13:48;;;;;;;0.53;0.45;;;;;;;21.11;51.95;99607.45;1753198;80;21097;-54
2021/09/14 09:16:29;;;;;;;1.30;0.50;;;;;;;21.14;52.07;99611.28;1760267;80;21448;-57
2021/09/14 09:18:59;;;;;;;0.75;0.50;;;;;;;21.17;51.43;99606.06;1774684;79;21254;-55
2021/09/14 09:21:38;;;;;;;2.37;0.60;;;;;;;21.17;51.40;99614.75;1771788;79;21434;-54
2021/09/14 09:24:09;;;;;;;1.15;0.53;;;;;;;21.16;51.32;99613.88;1775763;79;21452;-53
2021/09/14 09:26:42;;;;;;;0.82;0.50;;;;;;;21.17;51.45;99605.17;1773870;80;20938;-53
2021/09/14 09:29:11;;;;;;;0.40;0.40;;;;;;;21.19;51.48;99598.55;1775652;79;21418;-52
2021/09/14 09:31:44;;;;;;;0.90;0.50;;;;;;;21.23;51.41;99602.74;1770510;79;21126;-52
2021/09/14 09:34:11;;;;;;;2.25;0.60;;;;;;;21.29;51.64;99604.89;1775456;80;21665;-53
2021/09/14 09:36:40;;;;;;;0.62;0.60;;;;;;;21.36;51.51;99606.03;1775144;80;22138;-53
2021/09/14 09:39:13;;;;;;;1.15;0.50;;;;;;;21.36;50.80;99596.95;1711983;82;20916;-54
2021/09/14 09:41:53;;;;;;;1.20;0.60;;;;;;;21.37;50.82;99600.05;1714047;82;21767;-53
2021/09/14 09:44:20;;;;;;;0.70;0.50;;;;;;;21.32;50.99;99591.42;1736958;82;22420;-53
2021/09/14 09:46:55;;;;;;;0.60;0.50;;;;;;;21.33;50.51;99589.05;1709920;82;21751;-53
2021/09/14 09:49:22;;;;;;;0.72;0.50;;;;;;;21.31;51.02;99591.93;1721167;81;21756;-52
2021/09/14 09:51:49;;;;;;;1.72;0.50;;;;;;;21.35;51.23;99586.50;1736940;81;21377;-55
2021/09/14 09:54:15;;;;;;;1.60;0.60;;;;;;;21.41;51.17;99589.19;1708420;83;21034;-52
2021/09/14 09:56:41;;;;;;;2.08;0.57;;;;;;;21.45;50.94;99587.36;1699859;83;22594;-54
2021/09/14 09:59:10;;;;;;;2.62;0.60;;;;;;;21.51;50.76;99591.41;1711090;82;21547;-55
2021/09/14 10:01:36;;;;;;;1.35;0.50;;;;;;;21.57;50.12;99588.57;1683837;82;21066;-54
2021/09/14 10:04:17;;;;;;;0.62;0.50;;;;;;;21.61;50.04;99590.84;1706981;83;21124;-54
2021/09/14 10:06:47;;;;;;;1.75;0.68;;;;;;;21.68;50.31;99594.75;1705530;82;21717;-52
2021/09/14 10:09:14;;;;;;;0.80;0.50;;;;;;;21.72;49.96;99597.53;1706963;82;21060;-54
2021/09/14 10:11:42;;;;;;;0.68;0.50;;;;;;;21.78;49.69;99604.28;1705947;83;20983;-54
2021/09/14 10:14:14;;;;;;;0.93;0.50;;;;;;;21.78;49.62;99605.16;1706061;82;21021;-54
2021/09/14 10:16:46;;;;;;;2.22;0.60;;;;;;;21.78;49.08;99607.02;1701029;81;21055;-55
2021/09/14 10:19:29;;;;;;;9.40;0.60;;;;;;;21.77;49.14;99604.82;1741683;80;20974;-55
2021/09/14 10:22:03;;;;;;;1.22;0.60;;;;;;;21.75;48.95;99591.77;1744109;80;20899;-55
2021/09/14 10:24:30;;;;;;;0.68;0.60;;;;;;;21.75;49.35;99595.88;1741104;80;21402;-53
2021/09/14 10:27:08;;;;;;;1.25;0.50;;;;;;;21.73;49.28;99602.52;1739500;80;21128;-53
2021/09/14 10:29:35;;;;;;;0.88;0.40;;;;;;;21.72;49.50;99610.36;1744555;80;21019;-56
2021/09/14 10:32:09;;;;;;;0.80;0.50;;;;;;;21.73;49.76;99607.99;1742245;80;21056;-56
2021/09/14 10:34:41;;;;;;;0.70;0.47;;;;;;;21.74;49.41;99606.48;1746417;80;20914;-54
2021/09/14 10:37:10;;;;;;;0.50;0.47;;;;;;;21.74;49.17;99605.11;1743607;80;20950;-54
2021/09/14 10:39:38;;;;;;;0.60;0.50;;;;;;;21.73;49.18;99610.73;1742242;80;20978;-54
2021/09/14 10:42:22;;;;;;;0.90;0.60;;;;;;;21.75;49.05;99604.61;1746298;80;21665;-54
2021/09/14 10:44:51;;;;;;;0.60;0.50;;;;;;;21.78;49.05;99599.67;1745202;80;21009;-54
2021/09/14 10:47:22;;;;;;;2.90;0.62;;;;;;;21.83;49.46;99601.48;1744136;80;20969;-55
2021/09/14 10:49:59;;;;;;;0.70;0.60;;;;;;;21.91;49.07;99606.20;1748260;80;21080;-53
2021/09/14 10:52:40;;;;;;;5.80;1.60;;;;;;;21.92;48.85;99601.59;1740989;80;20985;-54
2021/09/14 10:55:11;;;;;;;10.23;4.45;;;;;;;21.92;49.00;99596.11;1737677;80;21062;-55
2021/09/14 10:57:41;;;;;;;5.33;2.52;;;;;;;21.90;49.22;99599.00;1744638;80;21100;-55
2021/09/14 11:00:13;;;;;;;5.05;1.50;;;;;;;21.89;49.19;99600.01;1742618;80;21061;-54
2021/09/14 11:02:41;;;;;;;2.37;0.90;;;;;;;21.89;49.46;99596.77;1745441;80;20874;-54
2021/09/14 11:05:09;;;;;;;3.72;0.98;;;;;;;21.90;49.57;99600.37;1742892;80;20894;-54
2021/09/14 11:07:35;;;;;;;3.47;1.20;;;;;;;;;;1741963;80;20903;-55
2021/09/14 11:10:11;;;;;;;2.08;0.65;;;;;;;21.78;49.42;99599.67;1742686;80;21561;-56
2021/09/14 11:12:33;;;;;;;2.37;0.60;;;;;;;21.75;49.46;99601.86;1740739;80;20942;-55
2021/09/14 11:15:01;;;;;;;3.33;0.72;;;;;;;21.68;49.29;99601.60;1740044;80;21394;-56
2021/09/14 11:17:31;;;;;;;1.50;0.78;;;;;;;21.62;49.43;99604.04;1754337;80;21293;-54
2021/09/14 11:20:18;;;;;;;1.27;0.70;;;;;;;21.58;49.52;99602.13;1761445;80;21529;-53
2021/09/14 11:22:45;;;;;;;0.88;0.70;;;;;;;21.52;49.61;99606.83;1760314;80;23165;-55
2021/09/14 11:25:17;;;;;;;1.90;0.70;;;;;;;21.45;49.98;99602.92;1763913;79;20942;-54
2021/09/14 11:28:04;;;;;;;1.52;0.68;;;;;;;21.41;50.01;99603.73;1760723;80;20974;-53
2021/09/14 11:30:32;;;;;;;2.70;0.80;;;;;;;21.35;50.03;99604.83;1762169;80;20985;-54
2021/09/14 11:32:59;;;;;;;1.20;0.70;;;;;;;21.31;50.46;99600.64;1762310;80;20999;-54
2021/09/14 11:35:29;;;;;;;1.72;0.80;;;;;;;21.30;50.56;99599.78;1763255;79;21090;-53
2021/09/14 11:37:58;;;;;;;1.67;0.72;;;;;;;21.30;50.71;99602.52;1757336;79;20887;-56
2021/09/14 11:40:27;;;;;;;0.85;0.70;;;;;;;21.32;51.04;99605.11;1761382;80;20945;-54
2021/09/14 11:43:02;;;;;;;0.95;0.70;;;;;;;21.33;51.10;99602.23;1762162;80;20891;-54
2021/09/14 11:45:31;;;;;;;0.70;0.60;;;;;;;21.37;51.14;99606.39;1763739;80;20946;-55
2021/09/14 11:47:58;;;;;;;1.65;0.60;;;;;;;21.38;50.42;99602.65;1766796;79;21109;-54
2021/09/14 11:50:30;;;;;;;1.27;0.60;;;;;;;21.41;50.48;99598.27;1761929;79;20891;-55
2021/09/14 11:53:17;;;;;;;0.88;0.60;;;;;;;21.43;49.82;99596.25;1725731;81;21584;-54
2021/09/14 11:55:47;;;;;;;0.72;0.50;;;;;;;21.43;49.60;99594.88;1703052;82;20992;-53
2021/09/14 11:58:33;;;;;;;1.72;0.42;;;;;;;21.46;49.41;99584.12;1761030;80;21401;-52
2021/09/14 12:01:06;;;;;;;2.05;0.60;;;;;;;21.50;49.24;99589.67;1727185;80;21405;-54
2021/09/14 12:03:44;;;;;;;1.00;0.50;;;;;;;21.59;49.14;99587.42;1763885;79;20935;-54
2021/09/14 12:06:14;;;;;;;1.00;0.60;;;;;;;21.68;48.98;99581.05;1758889;80;21027;-53
2021/09/14 12:08:42;;;;;;;2.02;0.60;;;;;;;21.78;48.40;99592.83;1760835;80;21011;-55
2021/09/14 12:11:10;;;;;;;1.57;0.60;;;;;;;21.81;47.92;99586.19;1761206;80;21149;-56
2021/09/14 12:13:39;;;;;;;0.80;0.60;;;;;;;21.82;47.96;99577.83;1763079;79;21535;-53
2021/09/14 12:16:12;;;;;;;0.50;0.40;;;;;;;21.82;47.93;99581.94;1759566;80;21086;-53
2021/09/14 12:18:38;;;;;;;1.00;0.57;;;;;;;21.81;47.25;99587.56;1748349;80;20980;-53
2021/09/14 12:21:05;;;;;;;1.60;0.60;;;;;;;21.78;47.20;99576.38;1742832;80;21040;-54
2021/09/14 12:23:32;;;;;;;0.80;0.40;;;;;;;21.77;46.97;99591.63;1745502;80;21075;-55
2021/09/14 12:25:58;;;;;;;0.70;0.40;;;;;;;21.74;46.63;99577.72;1745573;80;21492;-55
2021/09/14 12:28:24;;;;;;;1.55;0.50;;;;;;;21.70;46.06;99580.88;1743997;80;21060;-56
2021/09/14 12:30:51;;;;;;;0.80;0.50;;;;;;;21.68;46.20;99580.19;1740479;80;21725;-54
2021/09/14 12:33:17;;;;;;;2.35;0.47;;;;;;;21.66;46.28;99578.97;1743784;80;21794;-55
2021/09/14 12:35:46;;;;;;;0.70;0.50;;;;;;;21.64;46.26;99578.24;1744252;80;21122;-53
2021/09/14 12:38:13;;;;;;;0.40;0.40;;;;;;;21.66;46.54;99586.31;1739998;80;21489;-53
2021/09/14 12:40:39;;;;;;;0.40;0.40;;;;;;;21.65;46.15;99581.34;1739002;80;21087;-52
2021/09/14 12:43:05;;;;;;;0.40;0.37;;;;;;;21.65;46.77;99590.93;1740523;80;21170;-56
2021/09/14 12:45:32;;;;;;;0.72;0.50;;;;;;;21.65;46.52;99588.69;1744387;80;21108;-53